Jump to content
Tim Wong

[11 APR 2015 12-16z] Weekend Getaway VHHH - ROAH

Recommended Posts

5dctWuI.png

 

 

Okinawa is a famous vacation spot in Japan and known for its beautiful beaches and unique culture, and Hong Kong is a metropolitan known as the "Asia's World City" and hosts one of the busiest airports in the world. VATJPN and Hong Kong vACC would like to invite all members to fly between these two cities on April 11th, with full ATC service provided.

 

 

Date:

April 11th (Saturday) 1200z-1600z

Airport:

ROAH Naha international airport

VHHH Hong Kong international airport

 

Recommended Routes:

(1) ROAH (RWY18) → VHHH:

CANOP Y578 LUCKY DCT IGURU G581 MAGOG V511 ABBEY

 

(2) ROAH (RWY36) → VHHH:

GANJU Y576 GANAS DCT MYC G581 MAGOG V511 ABBEY

(3) VHHH → ROAH:

OCEAN V3 ENVAR M750 DADON G581 IGURU Y57 CRUXS

 

Scenery:

ROAH FSX: http://www.technobrain.com/fsaddon/fscroah/

ROAH FS2004: https://www.overland.co.jp/japaneseairports/index.html

 

VHHH FSX: https://secure.simmarket.com/taxi2gate-hong-kong-international-airport-vhhh-fsx-p3d.phtml

VHHH FS2004: https://secure.simmarket.com/imagine-sim-vhhh-hong-kong-chek-lap-kok-fs2004.phtml

Charts:

ROAH eAIP: https://aisjapan.mlit.go.jp/LoginAction.do

VHHH eAIP: http://www.hkatc.gov.hk/HK_AIP/ad.htm

 

 

 

Share this post


Link to post
Share on other sites

Event is going to be held next weekend. Don't missed the chance of full ATC between Hongkong and Naha.

Share this post


Link to post
Share on other sites

Hong Kong vACC and VATJPN Division are looking forward to your visit at both airports. See you tomorrow!

Edited by Guest

Share this post


Link to post
Share on other sites

Here are the latest weather information:

 

Naha

METAR: ROAH 111000Z 05009KT 9999 -RA FEW015 SCT030 BKN045 20/17 Q1018 RMK 2CU015 3CU030 7SC045 A3007

TAF: ROAH 110505Z 1106/1212 05010KT 9999 -SHRA SCT010 BKN020 TEMPO 1106/1109 4000 -SHRA BR TEMPO 1109/1115 3000 SHRA BKN008 BKN015 BECMG 1121/1124 13010KT

 

Hong Kong

METAR: VHHH 111000Z 01005KT 340V050 9999 -RA FEW007 SCT018 17/15 Q1019 NOSIG

TAF: VHHH 110500Z 1106/1212 03010KT 7000 FEW010 SCT020 TX18/1108Z TX22/1208Z TN16/1123Z TEMPO 1106/1115 4000 -RA TEMPO 1106/1112 33010KT TEMPO 1112/1118 09010KT TEMPO 1121/1212 VRB05KT

 

 

See you in a few hours!

Share this post


Link to post
Share on other sites

Please sign in to comment

You will be able to leave a comment after signing in



Sign In Now

×
×
  • Create New...